Time;durP1;ratioP1;P1;durP2;ratioP2;P2;SDS_P1;SDS_P2;PMS_P1;PMS_P2;Temp;Humidity;BMP_temperature;BMP_pressure;BME280_temperature;BME280_humidity;BME280_pressure;Samples;Min_cycle;Max_cycle;Signal;HPM_P1;HPM_P2
2024/02/19 00:00:38;;;;;;;34.63;5.75;;;;;;;;;;5004209;28;25058;-67
2024/02/19 00:03:04;;;;;;;34.33;5.20;;;;;;;;;;4998068;28;25064;-66
2024/02/19 00:05:30;;;;;;;31.95;5.53;;;;;;;;;;5000938;28;25156;-67
2024/02/19 00:07:59;;;;;;;32.53;5.32;;;;;;;;;;4992089;28;25114;-66
2024/02/19 00:10:25;;;;;;;34.90;5.80;;;;;;;;;;5002239;28;25046;-65
2024/02/19 00:12:51;;;;;;;26.63;5.22;;;;;;;;;;4997715;28;25080;-65
2024/02/19 00:15:17;;;;;;;31.05;5.72;;;;;;;;;;5000069;28;25134;-64
2024/02/19 00:17:44;;;;;;;31.45;5.90;;;;;;;;;;5000863;28;25141;-65
2024/02/19 00:20:10;;;;;;;39.25;6.78;;;;;;;;;;4999715;28;25154;-65
2024/02/19 00:22:36;;;;;;;32.25;5.40;;;;;;;;;;5002481;28;25148;-65
2024/02/19 00:25:02;;;;;;;26.73;5.35;;;;;;;;;;4999079;28;25152;-66
2024/02/19 00:27:28;;;;;;;32.20;5.65;;;;;;;;;;4995682;28;25058;-65
2024/02/19 00:29:54;;;;;;;34.20;5.65;;;;;;;;;;5000013;28;25090;-65
2024/02/19 00:32:20;;;;;;;38.42;5.90;;;;;;;;;;4997186;28;25098;-65
2024/02/19 00:34:46;;;;;;;38.65;6.80;;;;;;;;;;4996301;28;25088;-65
2024/02/19 00:37:12;;;;;;;35.88;5.60;;;;;;;;;;4980647;28;25063;-64
2024/02/19 00:39:38;;;;;;;36.28;5.45;;;;;;;;;;5001283;28;25068;-65
2024/02/19 00:42:04;;;;;;;40.95;7.38;;;;;;;;;;5002854;28;25110;-66
2024/02/19 00:44:31;;;;;;;27.38;5.40;;;;;;;;;;5001493;28;25057;-64
2024/02/19 00:46:57;;;;;;;36.75;6.13;;;;;;;;;;4998268;28;25070;-65
2024/02/19 00:49:23;;;;;;;38.90;6.75;;;;;;;;;;5006471;28;25062;-67
2024/02/19 00:51:49;;;;;;;41.65;7.40;;;;;;;;;;5002417;28;25066;-66
2024/02/19 00:54:15;;;;;;;27.73;5.38;;;;;;;;;;5000822;28;25088;-65
2024/02/19 00:56:41;;;;;;;38.53;5.90;;;;;;;;;;5009110;28;25061;-65
2024/02/19 00:59:07;;;;;;;31.55;6.43;;;;;;;;;;5001571;28;25085;-65
2024/02/19 01:01:33;;;;;;;38.55;7.00;;;;;;;;;;5003737;28;25067;-65
2024/02/19 01:03:59;;;;;;;51.45;8.70;;;;;;;;;;5004322;28;25149;-65
2024/02/19 01:06:26;;;;;;;35.97;7.22;;;;;;;;;;5001261;28;25106;-65
2024/02/19 01:08:54;;;;;;;45.33;7.00;;;;;;;;;;5002815;28;25078;-65
2024/02/19 01:11:20;;;;;;;45.85;7.60;;;;;;;;;;5005096;28;25065;-66
2024/02/19 01:13:46;;;;;;;45.78;7.93;;;;;;;;;;5002830;28;25060;-66
2024/02/19 01:16:12;;;;;;;44.88;7.10;;;;;;;;;;5004450;28;25081;-65
2024/02/19 01:18:38;;;;;;;54.60;8.52;;;;;;;;;;4984055;28;25056;-64
2024/02/19 01:21:04;;;;;;;47.72;7.68;;;;;;;;;;5000381;28;25067;-65
2024/02/19 01:23:30;;;;;;;48.95;8.85;;;;;;;;;;5005042;28;25137;-65
2024/02/19 01:25:56;;;;;;;45.85;7.95;;;;;;;;;;5002361;28;25054;-65
2024/02/19 01:28:23;;;;;;;52.72;7.82;;;;;;;;;;5002045;28;25071;-64
2024/02/19 01:30:49;;;;;;;42.15;6.75;;;;;;;;;;5001433;28;25072;-64
2024/02/19 01:33:15;;;;;;;48.35;7.65;;;;;;;;;;5005278;28;25100;-64
2024/02/19 01:35:44;;;;;;;43.92;8.00;;;;;;;;;;5002659;28;25063;-64
2024/02/19 01:38:10;;;;;;;50.17;7.70;;;;;;;;;;4996342;28;25048;-67
2024/02/19 01:40:36;;;;;;;38.10;6.90;;;;;;;;;;5000290;28;25074;-64
2024/02/19 01:43:07;;;;;;;44.28;7.38;;;;;;;;;;4998028;28;25108;-66
2024/02/19 01:45:33;;;;;;;46.67;7.40;;;;;;;;;;5018916;28;25068;-66
2024/02/19 01:47:59;;;;;;;44.00;6.18;;;;;;;;;;5024111;28;25057;-65
2024/02/19 01:50:28;;;;;;;36.60;6.40;;;;;;;;;;5024799;28;25103;-65
2024/02/19 01:52:56;;;;;;;42.75;7.32;;;;;;;;;;5019964;28;25069;-67
2024/02/19 01:55:22;;;;;;;39.38;7.07;;;;;;;;;;5007377;28;25130;-65
2024/02/19 01:57:51;;;;;;;29.83;7.15;;;;;;;;;;5004879;28;25106;-67
2024/02/19 02:00:17;;;;;;;33.47;7.15;;;;;;;;;;4999497;28;25080;-65
2024/02/19 02:02:43;;;;;;;39.45;6.75;;;;;;;;;;4994175;28;25161;-64
2024/02/19 02:05:13;;;;;;;38.38;7.03;;;;;;;;;;4994101;28;25052;-64
2024/02/19 02:07:40;;;;;;;27.35;6.30;;;;;;;;;;5003411;28;25058;-65
2024/02/19 02:10:06;;;;;;;39.17;6.78;;;;;;;;;;4998504;28;25073;-65
2024/02/19 02:12:32;;;;;;;34.50;6.22;;;;;;;;;;5005270;28;25078;-65
2024/02/19 02:14:58;;;;;;;32.30;6.00;;;;;;;;;;5001161;28;25069;-64
2024/02/19 02:17:24;;;;;;;37.15;7.10;;;;;;;;;;4998387;28;25135;-65
2024/02/19 02:19:50;;;;;;;33.88;6.22;;;;;;;;;;5004305;28;25152;-66
2024/02/19 02:22:16;;;;;;;36.60;6.63;;;;;;;;;;5000176;28;25085;-66
2024/02/19 02:24:43;;;;;;;36.72;6.28;;;;;;;;;;5002077;28;25061;-64
2024/02/19 02:27:09;;;;;;;36.90;5.90;;;;;;;;;;4999250;28;25065;-65
2024/02/19 02:29:39;;;;;;;30.63;5.47;;;;;;;;;;5000164;28;25155;-65
2024/02/19 02:32:05;;;;;;;27.13;5.30;;;;;;;;;;5005035;28;25046;-67
2024/02/19 02:34:31;;;;;;;31.83;6.07;;;;;;;;;;5003874;28;25116;-63
2024/02/19 02:36:57;;;;;;;30.65;5.70;;;;;;;;;;5007296;28;25098;-68
2024/02/19 02:39:23;;;;;;;32.30;5.30;;;;;;;;;;5005788;28;25101;-66
2024/02/19 02:41:49;;;;;;;32.65;6.53;;;;;;;;;;5005868;28;25080;-63
2024/02/19 02:44:16;;;;;;;27.98;5.97;;;;;;;;;;5005742;28;25054;-65
2024/02/19 02:46:42;;;;;;;24.83;5.32;;;;;;;;;;5007148;28;25084;-64
2024/02/19 02:49:08;;;;;;;30.63;5.88;;;;;;;;;;5002976;28;25125;-65
2024/02/19 02:51:34;;;;;;;34.67;5.25;;;;;;;;;;4996757;28;25103;-65
2024/02/19 02:54:01;;;;;;;31.55;5.53;;;;;;;;;;5000986;28;25045;-66
2024/02/19 02:56:27;;;;;;;26.75;5.28;;;;;;;;;;4998281;28;25062;-66
2024/02/19 02:58:53;;;;;;;36.20;5.07;;;;;;;;;;4999795;28;25140;-66
2024/02/19 03:01:22;;;;;;;31.80;5.53;;;;;;;;;;4988684;28;25056;-65
2024/02/19 03:03:48;;;;;;;29.27;5.72;;;;;;;;;;5007182;28;25085;-65
2024/02/19 03:06:14;;;;;;;26.27;5.15;;;;;;;;;;5006939;28;25079;-65
2024/02/19 03:08:40;;;;;;;31.88;5.70;;;;;;;;;;5006700;28;25133;-65
2024/02/19 03:11:06;;;;;;;30.20;5.53;;;;;;;;;;5006711;28;25077;-64
2024/02/19 03:13:32;;;;;;;36.55;5.00;;;;;;;;;;5007502;28;25065;-67
2024/02/19 03:15:58;;;;;;;27.80;5.05;;;;;;;;;;5006704;28;25062;-67
2024/02/19 03:18:26;;;;;;;28.08;4.97;;;;;;;;;;5001914;28;25072;-64
2024/02/19 03:20:52;;;;;;;32.13;6.32;;;;;;;;;;4988010;28;25068;-62
2024/02/19 03:23:18;;;;;;;23.75;4.85;;;;;;;;;;4985959;28;25050;-64
2024/02/19 03:25:45;;;;;;;30.73;5.25;;;;;;;;;;4999968;28;25074;-64
2024/02/19 03:28:11;;;;;;;24.23;4.85;;;;;;;;;;5004023;28;25108;-67
2024/02/19 03:30:37;;;;;;;28.85;5.28;;;;;;;;;;5004205;28;25057;-65
2024/02/19 03:33:03;;;;;;;29.08;4.30;;;;;;;;;;5000896;28;25120;-65
2024/02/19 03:35:29;;;;;;;30.00;5.22;;;;;;;;;;5000839;28;25074;-65
2024/02/19 03:37:55;;;;;;;34.85;5.43;;;;;;;;;;5004850;28;25116;-64
2024/02/19 03:40:21;;;;;;;24.10;4.57;;;;;;;;;;5001081;28;25075;-65
2024/02/19 03:42:47;;;;;;;32.78;5.13;;;;;;;;;;5000179;28;25146;-65
2024/02/19 03:45:13;;;;;;;18.15;4.97;;;;;;;;;;5003516;28;25069;-65
2024/02/19 03:47:41;;;;;;;29.00;5.57;;;;;;;;;;5004330;28;25143;-67
2024/02/19 03:50:07;;;;;;;30.15;6.07;;;;;;;;;;4996459;28;25047;-64
2024/02/19 03:52:33;;;;;;;24.70;5.20;;;;;;;;;;5000949;28;25067;-63
2024/02/19 03:54:59;;;;;;;26.15;4.50;;;;;;;;;;5000014;28;25100;-65
2024/02/19 03:57:25;;;;;;;28.55;5.15;;;;;;;;;;4999778;28;25100;-65
2024/02/19 03:59:51;;;;;;;21.67;5.22;;;;;;;;;;4994864;28;25054;-63
2024/02/19 04:02:17;;;;;;;23.60;4.50;;;;;;;;;;5002223;28;25082;-64
2024/02/19 04:04:43;;;;;;;29.52;5.75;;;;;;;;;;4994696;28;25074;-64
2024/02/19 04:07:09;;;;;;;24.83;4.65;;;;;;;;;;5001882;28;25062;-64
2024/02/19 04:09:36;;;;;;;21.23;4.55;;;;;;;;;;5003560;28;25062;-64
2024/02/19 04:12:08;;;;;;;19.83;4.90;;;;;;;;;;5011252;28;25045;-64
2024/02/19 04:14:35;;;;;;;21.80;5.20;;;;;;;;;;5012411;28;25059;-64
2024/02/19 04:17:01;;;;;;;22.85;4.68;;;;;;;;;;5019525;28;25084;-64
2024/02/19 04:19:30;;;;;;;25.02;5.25;;;;;;;;;;5016233;28;25072;-64
2024/02/19 04:21:56;;;;;;;24.30;5.43;;;;;;;;;;5009701;28;25145;-64
2024/02/19 04:24:22;;;;;;;24.15;5.55;;;;;;;;;;5006963;28;25071;-64
2024/02/19 04:26:48;;;;;;;30.45;6.35;;;;;;;;;;5006968;28;25059;-64
2024/02/19 04:29:14;;;;;;;21.17;4.32;;;;;;;;;;5008715;28;25129;-65
2024/02/19 04:31:43;;;;;;;29.77;5.65;;;;;;;;;;5008390;28;25097;-66
2024/02/19 04:34:09;;;;;;;39.33;5.85;;;;;;;;;;5007512;28;25080;-65
2024/02/19 04:36:35;;;;;;;23.27;5.53;;;;;;;;;;5000521;28;25082;-65
2024/02/19 04:39:01;;;;;;;27.15;5.55;;;;;;;;;;5008762;28;25170;-64
2024/02/19 04:41:27;;;;;;;24.67;6.05;;;;;;;;;;4985669;28;25102;-64
2024/02/19 04:43:53;;;;;;;25.75;5.53;;;;;;;;;;5005202;28;25071;-65
2024/02/19 04:46:19;;;;;;;21.15;5.10;;;;;;;;;;5007893;28;25151;-64
2024/02/19 04:48:45;;;;;;;29.00;6.38;;;;;;;;;;5008609;28;25068;-64
2024/02/19 04:51:11;;;;;;;22.75;4.90;;;;;;;;;;5006119;28;25122;-64
2024/02/19 04:53:37;;;;;;;24.52;5.90;;;;;;;;;;5008536;28;25055;-65
2024/02/19 04:56:03;;;;;;;22.63;5.20;;;;;;;;;;5008779;28;25074;-64
2024/02/19 04:58:29;;;;;;;24.40;6.70;;;;;;;;;;5008131;28;25062;-65
2024/02/19 05:00:55;;;;;;;23.58;5.35;;;;;;;;;;4991561;28;25067;-65
2024/02/19 05:03:21;;;;;;;29.52;5.85;;;;;;;;;;5008319;28;25071;-65
2024/02/19 05:05:47;;;;;;;26.90;5.45;;;;;;;;;;5003853;28;25058;-64
2024/02/19 05:08:13;;;;;;;25.85;5.20;;;;;;;;;;5000939;28;25113;-64
2024/02/19 05:10:39;;;;;;;25.63;5.55;;;;;;;;;;5006913;28;25118;-64
2024/02/19 05:13:05;;;;;;;32.47;5.72;;;;;;;;;;5002126;28;25064;-66
2024/02/19 05:15:31;;;;;;;21.38;4.80;;;;;;;;;;5005090;28;25074;-64
2024/02/19 05:17:57;;;;;;;32.28;6.10;;;;;;;;;;5008258;28;25058;-64
2024/02/19 05:20:23;;;;;;;28.17;6.25;;;;;;;;;;4987287;28;25129;-65
2024/02/19 05:22:50;;;;;;;35.35;7.05;;;;;;;;;;5005110;28;25092;-65
2024/02/19 05:25:18;;;;;;;29.75;5.50;;;;;;;;;;5002799;28;25051;-66
2024/02/19 05:27:44;;;;;;;23.98;7.00;;;;;;;;;;5008826;28;25148;-63
2024/02/19 05:30:12;;;;;;;35.72;6.15;;;;;;;;;;5002384;28;25058;-65
2024/02/19 05:32:38;;;;;;;28.70;5.93;;;;;;;;;;5006792;28;25058;-65
2024/02/19 05:35:04;;;;;;;18.80;4.78;;;;;;;;;;4998581;28;25051;-63
2024/02/19 05:37:32;;;;;;;26.88;6.05;;;;;;;;;;5004441;28;25070;-63
2024/02/19 05:39:58;;;;;;;23.38;6.18;;;;;;;;;;5005093;28;25141;-64
2024/02/19 05:42:23;;;;;;;22.58;5.95;;;;;;;;;;5002995;28;25167;-64
2024/02/19 05:44:49;;;;;;;32.03;6.72;;;;;;;;;;5002521;28;25079;-64
2024/02/19 05:47:16;;;;;;;36.17;7.15;;;;;;;;;;4984153;28;25062;-63
2024/02/19 05:49:42;;;;;;;35.15;6.80;;;;;;;;;;4999194;28;25067;-64
2024/02/19 05:52:08;;;;;;;29.73;6.55;;;;;;;;;;5005702;28;25069;-64
2024/02/19 05:54:34;;;;;;;22.10;5.53;;;;;;;;;;5006028;28;25066;-63
2024/02/19 05:57:00;;;;;;;25.27;6.22;;;;;;;;;;5007658;28;25065;-64
2024/02/19 05:59:26;;;;;;;29.27;5.85;;;;;;;;;;5004270;28;25151;-65
2024/02/19 06:01:53;;;;;;;30.60;6.93;;;;;;;;;;5005043;28;25089;-64
2024/02/19 06:04:19;;;;;;;27.25;6.15;;;;;;;;;;5003612;28;25086;-64
2024/02/19 06:06:45;;;;;;;30.75;6.82;;;;;;;;;;4989065;28;25167;-65
2024/02/19 06:09:11;;;;;;;22.08;5.97;;;;;;;;;;5006751;28;25052;-64
2024/02/19 06:11:44;;;;;;;32.85;6.82;;;;;;;;;;5010430;28;25052;-64
2024/02/19 06:14:10;;;;;;;28.38;6.65;;;;;;;;;;5008666;28;25085;-63
2024/02/19 06:16:36;;;;;;;30.70;6.82;;;;;;;;;;5010403;28;25187;-62
2024/02/19 06:19:02;;;;;;;27.02;7.55;;;;;;;;;;5010105;28;25054;-66
2024/02/19 06:21:28;;;;;;;34.58;7.80;;;;;;;;;;5003876;28;25059;-65
2024/02/19 06:23:54;;;;;;;32.30;7.20;;;;;;;;;;4997487;28;25086;-64
2024/02/19 06:26:20;;;;;;;30.02;7.65;;;;;;;;;;5007157;28;25056;-65
2024/02/19 06:28:46;;;;;;;26.30;7.38;;;;;;;;;;4990597;28;25050;-64
2024/02/19 06:31:13;;;;;;;27.95;6.85;;;;;;;;;;4998398;28;25077;-65
2024/02/19 06:33:39;;;;;;;26.13;7.88;;;;;;;;;;4995541;28;25056;-67
2024/02/19 06:36:05;;;;;;;31.35;7.88;;;;;;;;;;5003437;28;25078;-67
2024/02/19 06:38:31;;;;;;;32.28;8.07;;;;;;;;;;5019919;28;25084;-66
2024/02/19 06:40:57;;;;;;;27.67;8.45;;;;;;;;;;5011688;28;25077;-64
2024/02/19 06:43:23;;;;;;;31.88;8.45;;;;;;;;;;5018142;28;25054;-64
2024/02/19 06:45:49;;;;;;;26.27;8.25;;;;;;;;;;5006792;28;25131;-64
2024/02/19 06:48:15;;;;;;;33.53;8.60;;;;;;;;;;5005534;28;25077;-65
2024/02/19 06:50:41;;;;;;;30.35;8.75;;;;;;;;;;5007752;28;25041;-67
2024/02/19 06:53:07;;;;;;;22.08;6.88;;;;;;;;;;5001114;28;25080;-64
2024/02/19 06:55:34;;;;;;;30.40;8.15;;;;;;;;;;5001186;28;25077;-67
2024/02/19 06:58:00;;;;;;;30.23;7.15;;;;;;;;;;5002461;28;25073;-65
2024/02/19 07:00:26;;;;;;;27.25;8.20;;;;;;;;;;5000643;28;25115;-66
2024/02/19 07:02:52;;;;;;;32.58;8.05;;;;;;;;;;5001867;28;25055;-65
2024/02/19 07:05:19;;;;;;;24.45;7.18;;;;;;;;;;5005955;28;25076;-66
2024/02/19 07:07:45;;;;;;;27.42;8.18;;;;;;;;;;5007386;28;25062;-65
2024/02/19 07:10:11;;;;;;;26.75;7.00;;;;;;;;;;4996503;28;25070;-65
2024/02/19 07:12:38;;;;;;;21.98;7.03;;;;;;;;;;5006460;28;25079;-65
2024/02/19 07:15:05;;;;;;;33.33;7.65;;;;;;;;;;5003179;28;25168;-65
2024/02/19 07:17:31;;;;;;;28.65;7.47;;;;;;;;;;5000296;28;25097;-65
2024/02/19 07:19:58;;;;;;;21.58;6.50;;;;;;;;;;5002567;28;25180;-64
2024/02/19 07:22:24;;;;;;;27.40;7.22;;;;;;;;;;5001953;28;25134;-65
2024/02/19 07:24:50;;;;;;;25.90;9.68;;;;;;;;;;5002282;28;25059;-65
2024/02/19 07:27:16;;;;;;;22.77;6.65;;;;;;;;;;5000728;28;25069;-66
2024/02/19 07:29:42;;;;;;;26.33;6.85;;;;;;;;;;4999269;28;25142;-66
2024/02/19 07:32:08;;;;;;;25.27;6.38;;;;;;;;;;4983650;28;25060;-64
2024/02/19 07:34:34;;;;;;;25.02;6.95;;;;;;;;;;5002794;28;25088;-66
2024/02/19 07:37:00;;;;;;;20.52;5.82;;;;;;;;;;5002142;28;25103;-66
2024/02/19 07:39:26;;;;;;;24.65;5.75;;;;;;;;;;4995339;28;25135;-66
2024/02/19 07:41:52;;;;;;;20.92;5.82;;;;;;;;;;5000037;28;25156;-65
2024/02/19 07:44:19;;;;;;;23.15;5.97;;;;;;;;;;4997133;28;25077;-64
2024/02/19 07:46:44;;;;;;;30.38;6.60;;;;;;;;;;5004959;28;25067;-65
2024/02/19 07:49:10;;;;;;;24.58;7.10;;;;;;;;;;4995643;28;25064;-66
2024/02/19 07:51:36;;;;;;;25.45;8.00;;;;;;;;;;4980439;28;25179;-65
2024/02/19 07:54:03;;;;;;;26.80;6.35;;;;;;;;;;5004957;28;25067;-65
2024/02/19 07:56:28;;;;;;;25.85;5.95;;;;;;;;;;5005744;28;25123;-65
2024/02/19 07:58:54;;;;;;;19.90;6.10;;;;;;;;;;5000050;28;25137;-67
2024/02/19 08:01:20;;;;;;;31.02;6.30;;;;;;;;;;5010026;28;25071;-66
2024/02/19 08:03:47;;;;;;;27.48;6.38;;;;;;;;;;5005444;28;25091;-65
2024/02/19 08:06:13;;;;;;;21.48;6.15;;;;;;;;;;5008951;28;25072;-64
2024/02/19 08:08:39;;;;;;;22.23;5.72;;;;;;;;;;5007782;28;25079;-65
2024/02/19 08:11:06;;;;;;;24.73;7.25;;;;;;;;;;5004663;28;25059;-65
2024/02/19 08:13:32;;;;;;;21.48;6.82;;;;;;;;;;5001949;28;25059;-65
2024/02/19 08:15:58;;;;;;;21.45;6.75;;;;;;;;;;5005194;28;25125;-66
2024/02/19 08:18:24;;;;;;;31.70;9.40;;;;;;;;;;5009856;28;25094;-66
2024/02/19 08:20:51;;;;;;;24.85;7.93;;;;;;;;;;4998917;28;25049;-66
2024/02/19 08:23:18;;;;;;;31.05;8.90;;;;;;;;;;4991603;28;25063;-67
2024/02/19 08:25:45;;;;;;;24.48;8.38;;;;;;;;;;5008565;28;25073;-66
2024/02/19 08:28:11;;;;;;;25.25;7.72;;;;;;;;;;5008741;28;25060;-65
2024/02/19 08:30:37;;;;;;;28.80;8.25;;;;;;;;;;5003401;28;25072;-65
2024/02/19 08:33:03;;;;;;;28.90;8.93;;;;;;;;;;5010738;28;25131;-63
2024/02/19 08:35:29;;;;;;;27.63;9.38;;;;;;;;;;5001912;28;25080;-66
2024/02/19 08:37:58;;;;;;;26.17;8.52;;;;;;;;;;5007556;28;25100;-65
2024/02/19 08:40:24;;;;;;;33.65;10.05;;;;;;;;;;5007285;28;25097;-66
2024/02/19 08:42:50;;;;;;;26.15;8.32;;;;;;;;;;5002894;28;25045;-65
2024/02/19 08:45:16;;;;;;;21.17;8.07;;;;;;;;;;5003673;28;25097;-65
2024/02/19 08:47:42;;;;;;;32.92;8.38;;;;;;;;;;5008535;28;25081;-65
2024/02/19 08:50:08;;;;;;;25.13;8.15;;;;;;;;;;5004406;28;25069;-66
2024/02/19 08:52:34;;;;;;;25.00;7.57;;;;;;;;;;5002838;28;25136;-66
2024/02/19 08:55:00;;;;;;;25.17;8.27;;;;;;;;;;5004542;28;25114;-66
2024/02/19 08:57:26;;;;;;;24.15;7.35;;;;;;;;;;5005917;28;25064;-64
2024/02/19 08:59:53;;;;;;;27.83;7.20;;;;;;;;;;5013458;28;25083;-68
2024/02/19 09:02:21;;;;;;;23.85;7.30;;;;;;;;;;5019163;28;25082;-64
2024/02/19 09:04:48;;;;;;;23.73;7.15;;;;;;;;;;5021544;28;25062;-64
2024/02/19 09:07:14;;;;;;;29.48;8.63;;;;;;;;;;5017723;28;25151;-64
2024/02/19 09:09:44;;;;;;;29.35;7.75;;;;;;;;;;5001574;28;25142;-65
2024/02/19 09:12:10;;;;;;;21.88;7.15;;;;;;;;;;5005772;28;25075;-64
2024/02/19 09:14:36;;;;;;;28.15;7.40;;;;;;;;;;5003914;28;25109;-64
2024/02/19 09:17:02;;;;;;;24.90;7.28;;;;;;;;;;5003843;28;25113;-65
2024/02/19 09:19:28;;;;;;;29.15;7.70;;;;;;;;;;4983383;28;25110;-65
2024/02/19 09:21:54;;;;;;;25.75;7.38;;;;;;;;;;5004780;28;25138;-65
2024/02/19 09:24:20;;;;;;;34.55;8.20;;;;;;;;;;5005655;28;25100;-65
2024/02/19 09:26:46;;;;;;;29.50;7.53;;;;;;;;;;5002278;28;25110;-64
2024/02/19 09:29:12;;;;;;;33.42;6.95;;;;;;;;;;5003775;28;25144;-65
2024/02/19 09:31:38;;;;;;;19.92;6.50;;;;;;;;;;5002301;28;25142;-66
2024/02/19 09:34:04;;;;;;;27.23;7.47;;;;;;;;;;4994499;28;25074;-65
2024/02/19 09:36:30;;;;;;;21.63;7.13;;;;;;;;;;5006285;28;25056;-64
2024/02/19 09:38:56;;;;;;;23.85;6.80;;;;;;;;;;5007362;28;25069;-66
2024/02/19 09:41:22;;;;;;;29.52;7.45;;;;;;;;;;5013607;28;25069;-66
2024/02/19 09:43:49;;;;;;;34.78;8.63;;;;;;;;;;5009417;28;25131;-65
2024/02/19 09:46:16;;;;;;;24.15;7.32;;;;;;;;;;5005660;28;25131;-66
2024/02/19 09:48:51;;;;;;;32.72;7.82;;;;;;;;;;4991352;28;25054;-66
2024/02/19 09:51:21;;;;;;;25.88;7.30;;;;;;;;;;5004095;28;25065;-66
2024/02/19 09:53:51;;;;;;;25.17;6.25;;;;;;;;;;5008980;28;25075;-65
2024/02/19 09:56:22;;;;;;;22.25;7.20;;;;;;;;;;5006289;28;25088;-63
2024/02/19 09:58:48;;;;;;;24.08;6.35;;;;;;;;;;4997487;28;25074;-63
2024/02/19 10:01:14;;;;;;;24.25;6.45;;;;;;;;;;5005168;28;25071;-66
2024/02/19 10:03:40;;;;;;;33.47;8.07;;;;;;;;;;5005346;28;25144;-67
2024/02/19 10:06:07;;;;;;;25.05;7.50;;;;;;;;;;4997078;28;25058;-65
2024/02/19 10:08:33;;;;;;;32.83;8.07;;;;;;;;;;5002277;28;25087;-66
2024/02/19 10:11:00;;;;;;;30.73;6.88;;;;;;;;;;5000355;28;25101;-66
2024/02/19 10:13:27;;;;;;;35.08;7.40;;;;;;;;;;4997004;28;25054;-64
2024/02/19 10:15:53;;;;;;;27.92;6.40;;;;;;;;;;5001454;28;25110;-64
2024/02/19 10:18:19;;;;;;;29.23;7.43;;;;;;;;;;5004336;28;25116;-65
2024/02/19 10:20:46;;;;;;;19.52;6.32;;;;;;;;;;5000091;28;25091;-66
2024/02/19 10:23:12;;;;;;;17.02;5.63;;;;;;;;;;4996421;28;25082;-64
2024/02/19 10:25:38;;;;;;;23.15;6.60;;;;;;;;;;4995748;28;25081;-64
2024/02/19 10:28:05;;;;;;;23.13;5.88;;;;;;;;;;5002474;28;25152;-66
2024/02/19 10:30:31;;;;;;;34.20;8.10;;;;;;;;;;4981680;28;25062;-65
2024/02/19 10:32:57;;;;;;;32.95;7.00;;;;;;;;;;5002572;28;25081;-65
2024/02/19 10:35:23;;;;;;;25.23;5.95;;;;;;;;;;4999605;28;25051;-64
2024/02/19 10:37:49;;;;;;;20.27;6.05;;;;;;;;;;4999579;28;25144;-66
2024/02/19 10:40:18;;;;;;;28.30;7.03;;;;;;;;;;4998779;28;25063;-64
2024/02/19 10:42:44;;;;;;;27.30;6.63;;;;;;;;;;4999390;28;25071;-65
2024/02/19 10:45:11;;;;;;;31.90;6.97;;;;;;;;;;5003495;28;25069;-66
2024/02/19 10:47:38;;;;;;;25.20;6.80;;;;;;;;;;5004587;28;25160;-65
2024/02/19 10:50:07;;;;;;;26.08;7.43;;;;;;;;;;4996586;28;25109;-66
2024/02/19 10:52:33;;;;;;;26.55;7.50;;;;;;;;;;5006783;28;25081;-65
2024/02/19 10:55:03;;;;;;;33.08;7.13;;;;;;;;;;5002023;28;25073;-65
2024/02/19 10:57:32;;;;;;;23.52;6.55;;;;;;;;;;4988770;28;25073;-66
2024/02/19 11:00:11;;;;;;;29.05;7.28;;;;;;;;;;5003837;28;25085;-66
2024/02/19 11:02:38;;;;;;;28.20;7.60;;;;;;;;;;4997596;28;25132;-66
2024/02/19 11:05:07;;;;;;;22.23;7.53;;;;;;;;;;4996752;28;25071;-67
2024/02/19 11:07:34;;;;;;;22.60;7.63;;;;;;;;;;5003603;28;25123;-67
2024/02/19 11:10:02;;;;;;;24.27;7.57;;;;;;;;;;4997564;28;25068;-66
2024/02/19 11:12:29;;;;;;;29.35;9.48;;;;;;;;;;4999273;28;25050;-65
2024/02/19 11:14:55;;;;;;;29.65;12.75;;;;;;;;;;5000236;28;25117;-66
2024/02/19 11:17:23;;;;;;;39.05;13.50;;;;;;;;;;4997702;28;25072;-67
2024/02/19 11:19:50;;;;;;;34.40;13.95;;;;;;;;;;5000994;28;25062;-67
2024/02/19 11:22:22;;;;;;;34.28;15.10;;;;;;;;;;5011781;28;25053;-65
2024/02/19 11:24:50;;;;;;;37.40;14.33;;;;;;;;;;5004653;28;25051;-65
2024/02/19 11:27:16;;;;;;;31.63;14.20;;;;;;;;;;5016832;28;25069;-66
2024/02/19 11:29:42;;;;;;;35.33;15.18;;;;;;;;;;5011048;28;25063;-65
2024/02/19 11:32:08;;;;;;;37.47;16.77;;;;;;;;;;5008102;28;25060;-67
2024/02/19 11:34:35;;;;;;;38.53;17.88;;;;;;;;;;5005804;28;25113;-67
2024/02/19 11:37:05;;;;;;;46.25;17.60;;;;;;;;;;4998938;28;25144;-65
2024/02/19 11:39:31;;;;;;;36.00;17.30;;;;;;;;;;4999363;28;25048;-66
2024/02/19 11:42:00;;;;;;;35.53;16.08;;;;;;;;;;4996124;28;25055;-65
2024/02/19 11:44:28;;;;;;;43.80;16.67;;;;;;;;;;4988776;28;25118;-68
2024/02/19 11:46:54;;;;;;;34.28;15.52;;;;;;;;;;4995417;28;25083;-67
2024/02/19 11:49:21;;;;;;;44.88;14.75;;;;;;;;;;5004386;28;25167;-67
2024/02/19 11:51:47;;;;;;;32.28;14.27;;;;;;;;;;5005151;28;25149;-65
2024/02/19 11:54:16;;;;;;;35.33;13.43;;;;;;;;;;5002677;28;24844;-67
2024/02/19 11:56:43;;;;;;;34.50;12.90;;;;;;;;;;5002284;28;25061;-67
2024/02/19 11:59:10;;;;;;;28.70;12.98;;;;;;;;;;5007979;28;25173;-66
2024/02/19 12:01:36;;;;;;;19.60;10.32;;;;;;;;;;4994576;28;25112;-66
2024/02/19 12:04:05;;;;;;;33.88;12.23;;;;;;;;;;4992914;28;25051;-68
2024/02/19 12:06:38;;;;;;;31.73;10.50;;;;;;;;;;4997776;28;25059;-66
2024/02/19 12:09:05;;;;;;;24.90;8.65;;;;;;;;;;4993677;28;25050;-67
2024/02/19 12:11:33;;;;;;;28.10;9.65;;;;;;;;;;4995685;28;25061;-68
2024/02/19 12:13:59;;;;;;;27.75;9.35;;;;;;;;;;5005911;28;25073;-64
2024/02/19 12:16:27;;;;;;;24.20;9.75;;;;;;;;;;5005748;28;25053;-67
2024/02/19 12:18:54;;;;;;;26.73;9.60;;;;;;;;;;5001955;28;25165;-66
2024/02/19 12:21:22;;;;;;;19.80;8.65;;;;;;;;;;4995723;28;25064;-67
2024/02/19 12:23:52;;;;;;;23.02;10.15;;;;;;;;;;5004580;28;25060;-66
2024/02/19 12:26:18;;;;;;;22.02;8.70;;;;;;;;;;4999728;28;25155;-67
2024/02/19 12:28:44;;;;;;;21.13;7.85;;;;;;;;;;4995013;28;25070;-66
2024/02/19 12:31:10;;;;;;;19.25;8.50;;;;;;;;;;5004694;28;25085;-66
2024/02/19 12:33:37;;;;;;;23.95;8.93;;;;;;;;;;4984902;28;25096;-65
2024/02/19 12:36:08;;;;;;;27.27;9.43;;;;;;;;;;4995628;28;25089;-66
2024/02/19 12:38:41;;;;;;;19.63;7.88;;;;;;;;;;4983561;28;25089;-66
2024/02/19 12:41:08;;;;;;;23.33;8.30;;;;;;;;;;4996784;28;25063;-67
2024/02/19 12:43:35;;;;;;;26.80;8.63;;;;;;;;;;4998204;28;25200;-66
2024/02/19 12:46:05;;;;;;;25.38;9.35;;;;;;;;;;4982685;28;25069;-66
2024/02/19 12:48:33;;;;;;;22.33;7.90;;;;;;;;;;4983933;28;25146;-66
2024/02/19 12:51:00;;;;;;;21.77;8.75;;;;;;;;;;5000123;28;25075;-66
2024/02/19 12:53:26;;;;;;;22.75;8.82;;;;;;;;;;5003433;28;25075;-66
2024/02/19 12:55:52;;;;;;;29.25;10.35;;;;;;;;;;5002915;28;25066;-66
2024/02/19 12:58:18;;;;;;;30.45;9.05;;;;;;;;;;5008382;28;25110;-65
2024/02/19 13:00:44;;;;;;;25.25;7.60;;;;;;;;;;5007867;28;25122;-66
2024/02/19 13:03:10;;;;;;;23.45;8.18;;;;;;;;;;5002599;28;25012;-67
2024/02/19 13:05:37;;;;;;;22.42;7.55;;;;;;;;;;4988236;28;25101;-66
2024/02/19 13:08:03;;;;;;;26.60;7.22;;;;;;;;;;5005100;28;25175;-67
2024/02/19 13:10:31;;;;;;;25.25;7.43;;;;;;;;;;5003692;28;25141;-65
2024/02/19 13:12:57;;;;;;;33.17;7.95;;;;;;;;;;5002189;28;25325;-67
2024/02/19 13:15:23;;;;;;;24.27;7.30;;;;;;;;;;5011372;28;25072;-66
2024/02/19 13:17:49;;;;;;;20.27;7.18;;;;;;;;;;5006078;28;25057;-67
2024/02/19 13:20:15;;;;;;;27.98;7.53;;;;;;;;;;5006170;28;25097;-66
2024/02/19 13:22:42;;;;;;;24.35;7.68;;;;;;;;;;5009081;28;25053;-66
2024/02/19 13:25:09;;;;;;;22.52;7.90;;;;;;;;;;5003753;28;25073;-65
2024/02/19 13:27:35;;;;;;;19.30;6.78;;;;;;;;;;5001887;28;25055;-70
2024/02/19 13:30:01;;;;;;;21.95;6.35;;;;;;;;;;5007132;28;25133;-67
2024/02/19 13:32:27;;;;;;;22.38;6.75;;;;;;;;;;5019576;28;25082;-67
2024/02/19 13:34:53;;;;;;;21.60;6.70;;;;;;;;;;4996787;28;25104;-67
2024/02/19 13:37:21;;;;;;;19.75;5.63;;;;;;;;;;4999706;28;25055;-67
2024/02/19 13:39:47;;;;;;;30.90;6.85;;;;;;;;;;4996847;28;25057;-67
2024/02/19 13:42:13;;;;;;;22.48;6.93;;;;;;;;;;4999135;28;25146;-64
2024/02/19 13:44:39;;;;;;;19.25;6.00;;;;;;;;;;5013317;28;25065;-66
2024/02/19 13:47:05;;;;;;;25.38;8.13;;;;;;;;;;5016612;28;25066;-67
2024/02/19 13:49:31;;;;;;;19.58;6.03;;;;;;;;;;5014138;28;25081;-67
2024/02/19 13:51:57;;;;;;;27.48;8.18;;;;;;;;;;5009063;28;25064;-66
2024/02/19 13:54:23;;;;;;;26.10;7.25;;;;;;;;;;5003834;28;25135;-67
2024/02/19 13:56:51;;;;;;;32.38;6.80;;;;;;;;;;5004013;28;25119;-66
2024/02/19 13:59:17;;;;;;;25.52;7.50;;;;;;;;;;5000576;28;25143;-66
2024/02/19 14:01:43;;;;;;;21.63;6.72;;;;;;;;;;4996871;28;25130;-67
2024/02/19 14:04:09;;;;;;;30.48;7.82;;;;;;;;;;5001261;28;25078;-66
2024/02/19 14:06:35;;;;;;;25.08;7.20;;;;;;;;;;4994026;28;25134;-66
2024/02/19 14:09:01;;;;;;;24.55;6.95;;;;;;;;;;4996967;28;25071;-66
2024/02/19 14:11:29;;;;;;;20.20;6.40;;;;;;;;;;5000865;28;25080;-66
2024/02/19 14:13:55;;;;;;;27.65;7.15;;;;;;;;;;5005368;28;25104;-67
2024/02/19 14:16:21;;;;;;;22.77;7.10;;;;;;;;;;4981567;28;25146;-66
2024/02/19 14:18:47;;;;;;;24.65;5.72;;;;;;;;;;5000166;28;25069;-66
2024/02/19 14:21:13;;;;;;;21.92;6.32;;;;;;;;;;4997828;28;25053;-67
2024/02/19 14:23:40;;;;;;;21.50;5.70;;;;;;;;;;5000930;28;25064;-66